Weather at Malimpung Airport

Public forecast

Using degrees Celsius for public forecast. Weather courtesy of forecast.io.

Closest aviation weather report (METAR) to Malimpung Airport

Closest report is Hasanuddin International Airport, 80.3 nm (148.8 km) S. Retrieved 2022/01/17 03:30 UTC (42 minutes ago):

WAAA 170330Z 30010KT 9999 SCT019 30/25 Q1011 NOSIG

Closest aviation forecast (TAF) to Malimpung Airport

Forecast is more than 12 hours old.

Closest forecast is Makale Airport, 38.3 nm (70.9 km) N. Retrieved 2015/03/08 06:00 UTC (7 years ago):

TAF WAAT 080400Z 0806/0912 VRB03KT 9999 SCT040 BKN140 BECMG 0809/0811 09005G15KT CAVOK TEMPO 0711/0714 12006KT 9999 SCT040 BKN140